Gandsi, Mississippi
Current Conditions -  °F | °C
As of 10:15 AM on Wednesday 22 Oct 2014 (Local Time) from KPIB Reporting Station
Clear Clear  
Wind Chill: 66°   Ceiling: Unl
Heat Index: 66°   Visibility: 10mi
Dew Point: 52°   Wind: 7mph
Humidity: 60%   Direction: 80°E
Pressure: 30.15"   Gusts: NA
Location:  31.5166°N, 89.4877°W
Report Text: KPIB 221515Z AUTO 08006KT 10SM CLR 19/11 A3015 RMK AO1
Loading
Personal Weather Stations






























Interactive Weather Map New forecast layout! Learn more

10-Day Weather Forecast

Advertisements
Track Severe Weather on mobile